createdAt,value
2022-09-28T00:02:48.913Z,96965.38
2022-09-28T00:06:56.478Z,96961.59
2022-09-28T00:10:53.789Z,96960.46
2022-09-28T00:14:59.778Z,96958.09
2022-09-28T00:18:58.630Z,96956.84
2022-09-28T00:22:58.733Z,96947.24
2022-09-28T00:27:09.095Z,96937.46
2022-09-28T00:31:16.675Z,96935.02
2022-09-28T00:35:16.958Z,96938.42
2022-09-28T00:39:27.412Z,96935.06
2022-09-28T00:43:35.957Z,96925.27
2022-09-28T00:47:43.869Z,96923.77
2022-09-28T00:51:38.123Z,96922.96
2022-09-28T00:55:25.244Z,96920.65
2022-09-28T00:59:32.683Z,96923.52
2022-09-28T01:03:30.194Z,96913.23
2022-09-28T01:07:36.775Z,96907.98
2022-09-28T01:11:32.781Z,96900.80
2022-09-28T01:15:33.170Z,96902.75
2022-09-28T01:19:50.400Z,96903.64
2022-09-28T01:24:13.065Z,96909.73
2022-09-28T01:28:22.260Z,96902.80
2022-09-28T01:32:22.220Z,96897.86
2022-09-28T01:36:22.671Z,96898.20
2022-09-28T01:40:43.995Z,96896.33
2022-09-28T01:44:54.407Z,96888.04
2022-09-28T01:49:04.850Z,96882.56
2022-09-28T01:53:15.488Z,96884.98
2022-09-28T01:57:26.743Z,96887.42
2022-09-28T02:01:34.270Z,96886.66
2022-09-28T02:05:44.952Z,96885.31
2022-09-28T02:09:58.525Z,96882.73
2022-09-28T02:14:24.037Z,96884.39
2022-09-28T02:18:31.518Z,96887.55
2022-09-28T02:22:42.215Z,96894.25
2022-09-28T02:26:53.811Z,96899.73
2022-09-28T02:30:41.857Z,96900.81
2022-09-28T02:34:49.308Z,96900.15
2022-09-28T02:38:57.925Z,96893.25
2022-09-28T02:43:05.595Z,96889.84
2022-09-28T02:47:29.421Z,96897.06
2022-09-28T02:51:29.804Z,96898.36
2022-09-28T02:55:45.563Z,96907.78
2022-09-28T03:00:09.111Z,96908.09
2022-09-28T03:04:16.631Z,96907.41
2022-09-28T03:08:30.125Z,96903.77
2022-09-28T03:12:37.641Z,96898.29
2022-09-28T03:16:54.798Z,96898.48
2022-09-28T03:21:01.140Z,96897.43
2022-09-28T03:25:08.684Z,96891.73
2022-09-28T03:29:17.082Z,96896.43
2022-09-28T03:33:25.305Z,96897.09
2022-09-28T03:37:25.691Z,96896.99
2022-09-28T03:41:36.272Z,96889.46
2022-09-28T03:45:44.535Z,96890.95
2022-09-28T03:49:43.089Z,96898.00
2022-09-28T03:53:50.606Z,96894.40
2022-09-28T03:57:57.322Z,96894.23
2022-09-28T04:01:57.604Z,96888.71
2022-09-28T04:06:05.150Z,96886.23
2022-09-28T04:10:14.645Z,96884.16
2022-09-28T04:14:22.131Z,96876.62
2022-09-28T04:18:04.032Z,96870.02
2022-09-28T04:22:04.180Z,96861.08
2022-09-28T04:26:11.675Z,96860.64
2022-09-28T04:30:11.819Z,96862.45
2022-09-28T04:34:19.326Z,96861.39
2022-09-28T04:38:48.382Z,96857.89
2022-09-28T04:42:55.377Z,96858.61
2022-09-28T04:47:05.173Z,96855.01
2022-09-28T04:50:11.711Z,96857.85
2022-09-28T04:54:06.670Z,96863.48
2022-09-28T04:58:06.674Z,96866.48
2022-09-28T05:01:40.174Z,96869.05
2022-09-28T05:05:48.993Z,96872.35
2022-09-28T05:10:08.344Z,96875.91
2022-09-28T05:14:06.721Z,96883.70
2022-09-28T05:17:43.887Z,96883.59
2022-09-28T05:21:12.553Z,96880.18
2022-09-28T05:25:15.750Z,96889.77
2022-09-28T05:29:32.919Z,96887.67
2022-09-28T05:33:21.218Z,96888.66
2022-09-28T05:36:59.131Z,96900.48
2022-09-28T05:40:56.525Z,96910.05
2022-09-28T05:44:54.961Z,96916.55
2022-09-28T05:49:02.503Z,96923.16
2022-09-28T05:53:02.726Z,96930.98
2022-09-28T05:56:50.378Z,96935.56
2022-09-28T06:00:51.180Z,96938.77
2022-09-28T06:04:41.561Z,96941.36
2022-09-28T06:08:22.951Z,96946.88
2022-09-28T06:12:32.934Z,96953.30
2022-09-28T06:16:44.007Z,96961.02
2022-09-28T06:20:40.241Z,96966.61
2022-09-28T06:24:47.813Z,96958.28
2022-09-28T06:28:37.895Z,96959.62
2022-09-28T06:32:38.679Z,96969.02
2022-09-28T06:36:10.163Z,96975.30
2022-09-28T06:39:41.785Z,96992.70
2022-09-28T06:43:15.292Z,97001.90
2022-09-28T06:47:14.097Z,97002.38
2022-09-28T06:51:21.529Z,97024.09
2022-09-28T06:55:28.331Z,97029.00
2022-09-28T06:59:31.742Z,97024.23
2022-09-28T07:03:41.853Z,97023.40
2022-09-28T07:07:50.942Z,97018.03
2022-09-28T07:11:26.304Z,97021.43
2022-09-28T07:15:36.557Z,97017.48
2022-09-28T07:19:43.054Z,97029.17
2022-09-28T07:23:54.082Z,97037.85
2022-09-28T07:28:04.655Z,97035.48
2022-09-28T07:32:23.920Z,97039.71
2022-09-28T07:36:34.434Z,97044.91
2022-09-28T07:40:33.752Z,97051.54
2022-09-28T07:44:41.985Z,97065.79
2022-09-28T07:48:40.302Z,97071.10
2022-09-28T07:52:36.576Z,97061.70
2022-09-28T07:56:50.318Z,97068.55
2022-09-28T08:00:17.714Z,97067.64
2022-09-28T08:04:25.193Z,97072.70
2022-09-28T08:07:58.170Z,97069.08
2022-09-28T08:12:06.849Z,97069.45
2022-09-28T08:16:19.668Z,97073.16
2022-09-28T08:20:34.533Z,97081.70
2022-09-28T08:24:44.096Z,97084.05
2022-09-28T08:28:44.309Z,97094.80
2022-09-28T08:32:51.782Z,97089.89
2022-09-28T08:37:05.034Z,97101.95
2022-09-28T08:41:16.763Z,97109.73
2022-09-28T08:45:21.913Z,97109.13
2022-09-28T08:49:24.064Z,97116.39
2022-09-28T08:53:45.846Z,97123.91
2022-09-28T08:57:56.316Z,97127.83
2022-09-28T09:01:56.417Z,97127.04
2022-09-28T09:06:04.998Z,97124.11
2022-09-28T09:10:31.023Z,97122.95
2022-09-28T09:14:37.574Z,97125.17
2022-09-28T09:18:57.357Z,97132.15
2022-09-28T09:22:59.810Z,97132.23
2022-09-28T09:27:13.005Z,97135.70
2022-09-28T09:31:02.955Z,97134.83
2022-09-28T09:35:13.591Z,97134.23
2022-09-28T09:39:25.375Z,97132.17
2022-09-28T09:43:49.101Z,97128.79
2022-09-28T09:47:49.848Z,97120.70
2022-09-28T09:52:11.274Z,97128.83
2022-09-28T09:55:58.446Z,97133.20
2022-09-28T09:59:35.423Z,97122.48
2022-09-28T10:03:37.589Z,97117.78
2022-09-28T10:07:42.603Z,97112.61
2022-09-28T10:11:57.299Z,97111.86
2022-09-28T10:16:04.919Z,97114.35
2022-09-28T10:20:14.154Z,97127.55
2022-09-28T10:24:07.818Z,97131.25
2022-09-28T10:28:15.289Z,97134.13
2022-09-28T10:32:35.235Z,97127.27
2022-09-28T10:36:37.383Z,97131.10
2022-09-28T10:40:44.219Z,97126.60
2022-09-28T10:44:33.662Z,97130.55
2022-09-28T10:49:07.575Z,97132.12
2022-09-28T10:53:28.185Z,97125.70
2022-09-28T10:57:27.087Z,97126.95
2022-09-28T11:01:40.553Z,97126.50
2022-09-28T11:05:24.001Z,97127.82
2022-09-28T11:09:31.233Z,97134.42
2022-09-28T11:13:05.598Z,97129.66
2022-09-28T11:17:14.114Z,97138.20
2022-09-28T11:21:12.654Z,97135.02
2022-09-28T11:25:02.736Z,97138.91
2022-09-28T11:29:10.314Z,97138.98
2022-09-28T11:33:20.507Z,97129.86
2022-09-28T11:37:33.991Z,97123.74
2022-09-28T11:41:45.756Z,97112.33
2022-09-28T11:45:51.739Z,97113.18
2022-09-28T11:49:57.082Z,97119.50
2022-09-28T11:54:02.471Z,97127.88
2022-09-28T11:58:03.696Z,97126.96
2022-09-28T12:02:08.426Z,97131.09
2022-09-28T12:06:18.579Z,97131.60
2022-09-28T12:09:39.622Z,97135.96
2022-09-28T12:13:48.509Z,97139.50
2022-09-28T12:19:59.566Z,97145.39
2022-09-28T12:24:06.403Z,97136.27
2022-09-28T12:28:28.396Z,97139.02
2022-09-28T12:32:36.579Z,97139.38
2022-09-28T12:36:46.557Z,97146.77
2022-09-28T12:40:54.766Z,97155.16
2022-09-28T12:45:13.807Z,97161.91
2022-09-28T12:49:04.150Z,97169.40
2022-09-28T12:53:19.308Z,97171.77
2022-09-28T12:57:00.344Z,97168.58
2022-09-28T13:00:23.806Z,97164.25
2022-09-28T13:04:20.426Z,97166.30
2022-09-28T13:08:34.402Z,97176.23
2022-09-28T13:13:07.006Z,97177.23
2022-09-28T13:16:37.716Z,97186.36
2022-09-28T13:21:02.106Z,97189.59
2022-09-28T13:24:53.215Z,97191.17
2022-09-28T13:29:01.052Z,97191.41
2022-09-28T13:32:58.072Z,97199.37
2022-09-28T13:36:16.391Z,97200.76
2022-09-28T13:40:06.579Z,97203.01
2022-09-28T13:44:02.846Z,97204.70
2022-09-28T13:47:56.523Z,97200.43
2022-09-28T13:51:38.833Z,97199.31
2022-09-28T13:55:50.261Z,97203.11
2022-09-28T13:59:19.934Z,97210.48
2022-09-28T14:03:39.351Z,97216.77
2022-09-28T14:07:57.286Z,97218.14
2022-09-28T14:12:39.531Z,97224.65
2022-09-28T14:16:59.926Z,97231.45
2022-09-28T14:21:08.230Z,97231.55
2022-09-28T14:25:08.186Z,97231.62
2022-09-28T14:29:10.147Z,97226.29
2022-09-28T14:33:14.466Z,97226.50
2022-09-28T14:37:23.991Z,97231.88
2022-09-28T14:41:14.408Z,97228.94
2022-09-28T14:45:11.325Z,97227.91
2022-09-28T14:49:27.588Z,97226.64
2022-09-28T14:53:44.822Z,97230.33
2022-09-28T14:57:52.723Z,97229.31
2022-09-28T15:02:00.455Z,97230.18
2022-09-28T15:05:17.492Z,97238.02
2022-09-28T15:08:33.859Z,97237.11
2022-09-28T15:12:36.485Z,97232.93
2022-09-28T15:16:27.349Z,97240.56
2022-09-28T15:20:32.902Z,97242.73
2022-09-28T15:24:42.155Z,97242.74
2022-09-28T15:28:54.166Z,97245.15
2022-09-28T15:31:44.850Z,97242.33
2022-09-28T15:34:48.620Z,97247.52
2022-09-28T15:38:29.240Z,97252.48
2022-09-28T15:42:37.546Z,97261.42
2022-09-28T15:46:45.762Z,97258.59
2022-09-28T15:51:00.043Z,97260.02
2022-09-28T15:54:53.597Z,97261.58
2022-09-28T15:58:54.700Z,97258.41
2022-09-28T16:02:44.946Z,97259.30
2022-09-28T16:06:45.798Z,97263.21
2022-09-28T16:11:00.058Z,97269.31
2022-09-28T16:14:58.241Z,97273.17
2022-09-28T16:18:52.041Z,97280.80
2022-09-28T16:22:06.443Z,97283.78
2022-09-28T16:26:17.713Z,97286.93
2022-09-28T16:29:51.400Z,97292.03
2022-09-28T16:34:21.408Z,97295.00
2022-09-28T16:38:38.596Z,97295.62
2022-09-28T16:42:29.053Z,97295.71
2022-09-28T16:46:37.403Z,97299.92
2022-09-28T16:50:45.868Z,97296.19
2022-09-28T16:54:54.206Z,97292.81
2022-09-28T16:59:02.418Z,97291.65
2022-09-28T17:02:57.255Z,97294.59
2022-09-28T17:06:54.659Z,97296.16
2022-09-28T17:11:22.579Z,97299.70
2022-09-28T17:15:32.939Z,97304.16
2022-09-28T17:19:41.929Z,97307.59
2022-09-28T17:23:45.133Z,97302.70
2022-09-28T17:27:46.224Z,97297.50
2022-09-28T17:31:50.227Z,97299.48
2022-09-28T17:35:58.492Z,97298.66
2022-09-28T17:40:07.811Z,97300.08
2022-09-28T17:44:16.521Z,97304.18
2022-09-28T17:48:11.874Z,97300.05
2022-09-28T17:52:02.942Z,97301.91
2022-09-28T17:55:57.867Z,97308.62
2022-09-28T17:58:30.826Z,97311.52
2022-09-28T18:01:14.306Z,97313.81
2022-09-28T18:03:50.024Z,97310.61
2022-09-28T18:06:52.064Z,97308.08
2022-09-28T18:09:25.303Z,97308.09
2022-09-28T18:12:04.126Z,97312.46
2022-09-28T18:14:36.025Z,97317.11
2022-09-28T18:17:08.941Z,97322.45
2022-09-28T18:19:47.079Z,97327.35
2022-09-28T18:22:39.255Z,97328.14
2022-09-28T18:25:11.239Z,97328.67
2022-09-28T18:27:38.674Z,97327.37
2022-09-28T18:30:09.747Z,97322.46
2022-09-28T18:32:38.656Z,97328.20
2022-09-28T18:35:10.746Z,97342.14
2022-09-28T18:37:40.018Z,97348.26
2022-09-28T18:40:12.827Z,97352.67
2022-09-28T18:42:50.065Z,97361.11
2022-09-28T18:45:18.679Z,97359.48
2022-09-28T18:47:56.085Z,97363.01
2022-09-28T18:50:38.589Z,97365.11
2022-09-28T18:53:39.962Z,97369.92
2022-09-28T18:57:48.152Z,97372.42
2022-09-28T19:01:25.262Z,97372.27
2022-09-28T19:04:20.688Z,97377.80
2022-09-28T19:07:08.611Z,97380.52
2022-09-28T19:09:36.809Z,97376.90
2022-09-28T19:12:10.618Z,97372.33
2022-09-28T19:14:44.714Z,97370.63
2022-09-28T19:17:35.200Z,97374.55
2022-09-28T19:20:02.709Z,97372.18
2022-09-28T19:22:35.429Z,97374.98
2022-09-28T19:25:02.646Z,97378.88
2022-09-28T19:27:40.754Z,97380.59
2022-09-28T19:30:15.058Z,97386.33
2022-09-28T19:32:44.191Z,97389.66
2022-09-28T19:35:16.918Z,97391.79
2022-09-28T19:37:51.512Z,97395.15
2022-09-28T19:40:21.824Z,97402.23
2022-09-28T19:42:54.818Z,97402.30
2022-09-28T19:45:30.931Z,97404.33
2022-09-28T19:48:27.220Z,97406.00
2022-09-28T19:51:05.941Z,97412.00
2022-09-28T19:53:47.044Z,97410.15
2022-09-28T19:56:27.602Z,97419.16
2022-09-28T19:58:58.286Z,97421.04
2022-09-28T20:01:27.753Z,97425.83
2022-09-28T20:04:00.945Z,97419.41
2022-09-28T20:06:50.170Z,97417.39
2022-09-28T20:09:20.556Z,97413.88
2022-09-28T20:12:02.778Z,97407.23
2022-09-28T20:14:39.476Z,97404.96
2022-09-28T20:17:11.320Z,97400.85
2022-09-28T20:19:45.070Z,97404.73
2022-09-28T20:22:13.087Z,97405.33
2022-09-28T20:24:55.582Z,97409.66
2022-09-28T20:27:26.556Z,97412.13
2022-09-28T20:29:54.507Z,97408.14
2022-09-28T20:32:27.561Z,97410.19
2022-09-28T20:34:54.923Z,97414.80
2022-09-28T20:37:23.388Z,97414.89
2022-09-28T20:39:53.409Z,97414.89
2022-09-28T20:42:24.336Z,97412.11
2022-09-28T20:45:00.809Z,97413.95
2022-09-28T20:47:28.666Z,97417.02
2022-09-28T20:49:56.023Z,97421.04
2022-09-28T20:52:28.890Z,97425.45
2022-09-28T20:54:56.362Z,97428.17
2022-09-28T20:57:34.896Z,97428.27
2022-09-28T21:00:05.347Z,97426.00
2022-09-28T21:02:35.680Z,97426.05
2022-09-28T21:05:03.058Z,97422.58
2022-09-28T21:07:31.217Z,97426.02
2022-09-28T21:09:58.705Z,97430.98
2022-09-28T21:12:28.182Z,97427.33
2022-09-28T21:14:55.609Z,97427.66
2022-09-28T21:17:25.768Z,97429.48
2022-09-28T21:19:53.703Z,97431.86
2022-09-28T21:22:21.212Z,97431.04
2022-09-28T21:24:52.118Z,97427.88
2022-09-28T21:27:22.893Z,97429.52
2022-09-28T21:29:59.066Z,97429.50
2022-09-28T21:32:27.926Z,97426.37
2022-09-28T21:34:58.431Z,97425.38
2022-09-28T21:37:25.962Z,97423.92
2022-09-28T21:39:54.246Z,97424.00
2022-09-28T21:42:24.622Z,97425.02
2022-09-28T21:44:59.376Z,97429.79
2022-09-28T21:47:44.517Z,97427.95
2022-09-28T21:50:17.837Z,97433.77
2022-09-28T21:52:52.399Z,97437.13
2022-09-28T21:55:20.714Z,97436.90
2022-09-28T21:57:49.149Z,97433.69
2022-09-28T22:00:18.464Z,97433.98
2022-09-28T22:02:49.481Z,97432.20
2022-09-28T22:05:17.660Z,97429.65
2022-09-28T22:08:47.691Z,97425.25
2022-09-28T22:12:54.885Z,97423.75
2022-09-28T22:16:55.739Z,97424.44
2022-09-28T22:21:03.851Z,97422.44
2022-09-28T22:24:57.590Z,97419.09
2022-09-28T22:28:43.339Z,97419.23
2022-09-28T22:32:52.461Z,97414.09
2022-09-28T22:37:02.619Z,97415.84
2022-09-28T22:41:10.940Z,97416.73
2022-09-28T22:45:01.332Z,97421.38
2022-09-28T22:49:10.485Z,97414.30
2022-09-28T22:53:19.007Z,97410.33
2022-09-28T22:57:21.046Z,97406.65
2022-09-28T23:01:13.661Z,97403.08
2022-09-28T23:05:22.556Z,97404.46
2022-09-28T23:09:30.679Z,97413.73
2022-09-28T23:13:28.810Z,97417.50
2022-09-28T23:17:36.918Z,97415.16
2022-09-28T23:21:45.213Z,97423.59
2022-09-28T23:25:38.990Z,97426.41
2022-09-28T23:29:22.357Z,97421.04
2022-09-28T23:33:30.622Z,97423.80
2022-09-28T23:37:31.356Z,97434.19
2022-09-28T23:41:31.325Z,97434.72
2022-09-28T23:45:39.524Z,97427.58
2022-09-28T23:49:47.455Z,97418.86
2022-09-28T23:53:55.707Z,97414.41
2022-09-28T23:57:52.695Z,97415.97
